Time,TemperatureF,DewpointF,PressureIn,WindDirection,WindDirectionDegrees,WindSpeedMPH,WindSpeedGustMPH,Humidity,HourlyPrecipIn,Conditions,Clouds,dailyrainin,SoftwareType,DateUTC
2013-01-11 00:01:00,35.3,29.1,30.35,WSW,254,0.0,0.0,78,0.00,,CLR,0.00,VWS V14.00,2013-01-11 05:01:00,
2013-01-11 00:03:00,35.3,29.1,30.35,WSW,254,0.0,0.0,78,0.00,,CLR,0.00,VWS V14.00,2013-01-11 05:03:00,
2013-01-11 00:05:00,35.3,29.1,30.35,WSW,254,0.0,0.0,78,0.00,,CLR,0.00,VWS V14.00,2013-01-11 05:05:00,
2013-01-11 00:10:00,35.1,29.0,30.35,WSW,254,0.0,0.0,78,0.00,,CLR,0.00,VWS V14.00,2013-01-11 05:10:00,
2013-01-11 00:15:00,35.1,29.0,30.35,WSW,254,0.0,0.0,78,0.00,,CLR,0.00,VWS V14.00,2013-01-11 05:15:00,
2013-01-11 00:20:00,35.1,29.0,30.35,WSW,254,0.0,0.0,78,0.00,,CLR,0.00,VWS V14.00,2013-01-11 05:20:00,
2013-01-11 00:25:00,35.1,29.0,30.35,WSW,254,0.0,2.7,78,0.00,,CLR,0.00,VWS V14.00,2013-01-11 05:25:00,
2013-01-11 00:30:00,35.1,29.3,30.35,WSW,254,0.0,0.0,79,0.00,,CLR,0.00,VWS V14.00,2013-01-11 05:30:00,
2013-01-11 00:35:00,34.9,29.1,30.35,WSW,254,0.0,0.0,79,0.00,,CLR,0.00,VWS V14.00,2013-01-11 05:35:00,
2013-01-11 00:40:00,34.7,28.9,30.35,WSW,254,0.0,2.7,79,0.00,,CLR,0.00,VWS V14.00,2013-01-11 05:40:00,
2013-01-11 00:45:00,34.7,29.2,30.35,WSW,254,0.0,0.0,80,0.00,,CLR,0.00,VWS V14.00,2013-01-11 05:45:00,
2013-01-11 00:50:00,34.7,29.2,30.35,WSW,254,2.5,2.7,80,0.00,,CLR,0.00,VWS V14.00,2013-01-11 05:50:00,
2013-01-11 00:55:00,34.7,29.2,30.35,WSW,254,2.5,2.7,80,0.00,,CLR,0.00,VWS V14.00,2013-01-11 05:55:00,
2013-01-11 01:00:00,35.1,29.6,30.35,WSW,254,2.5,3.2,80,0.00,,CLR,0.00,VWS V14.00,2013-01-11 06:00:00,
2013-01-11 01:05:00,35.1,29.9,30.32,WSW,254,3.0,3.2,81,0.00,,CLR,0.00,VWS V14.00,2013-01-11 06:05:00,
2013-01-11 01:10:00,35.1,29.9,30.32,WSW,254,0.0,2.7,81,0.00,,CLR,0.00,VWS V14.00,2013-01-11 06:10:00,
2013-01-11 01:16:00,34.9,29.7,30.32,WSW,254,0.0,0.0,81,0.00,,CLR,0.00,VWS V14.00,2013-01-11 06:16:00,
2013-01-11 01:21:00,35.1,29.6,30.32,WSW,254,2.5,2.7,80,0.00,,CLR,0.00,VWS V14.00,2013-01-11 06:21:00,
2013-01-11 01:26:00,35.5,29.9,30.32,WSW,254,0.0,0.0,80,0.00,,CLR,0.00,VWS V14.00,2013-01-11 06:26:00,
2013-01-11 01:31:00,35.3,29.8,30.32,WSW,254,0.0,0.0,80,0.00,,CLR,0.00,VWS V14.00,2013-01-11 06:31:00,
2013-01-11 01:36:00,35.1,29.9,30.32,WSW,254,0.0,0.0,81,0.00,,CLR,0.00,VWS V14.00,2013-01-11 06:36:00,
2013-01-11 01:41:00,34.9,30.0,30.32,WSW,254,0.0,0.0,82,0.00,,CLR,0.00,VWS V14.00,2013-01-11 06:41:00,
2013-01-11 01:46:00,34.7,30.1,30.32,WSW,254,2.5,3.2,83,0.00,,CLR,0.00,VWS V14.00,2013-01-11 06:46:00,
2013-01-11 01:51:00,34.7,30.1,30.32,WSW,254,0.0,0.0,83,0.00,,CLR,0.00,VWS V14.00,2013-01-11 06:51:00,
2013-01-11 01:56:00,34.9,30.3,30.32,WSW,254,0.0,0.0,83,0.00,,CLR,0.00,VWS V14.00,2013-01-11 06:56:00,
2013-01-11 02:01:00,34.9,30.3,30.32,WSW,254,0.0,0.0,83,0.00,,CLR,0.00,VWS V14.00,2013-01-11 07:01:00,
2013-01-11 02:06:00,34.9,30.3,30.32,WSW,254,0.0,0.0,83,0.00,,CLR,0.00,VWS V14.00,2013-01-11 07:06:00,
2013-01-11 02:11:00,34.9,30.3,30.32,WSW,254,0.0,0.0,83,0.00,,CLR,0.00,VWS V14.00,2013-01-11 07:11:00,
2013-01-11 02:17:00,34.9,30.6,30.32,WSW,254,0.0,0.0,84,0.00,,CLR,0.00,VWS V14.00,2013-01-11 07:17:00,
2013-01-11 02:22:00,35.1,30.5,30.32,WSW,254,0.0,0.0,83,0.00,,CLR,0.00,VWS V14.00,2013-01-11 07:22:00,
2013-01-11 02:27:00,35.1,30.5,30.32,WSW,254,0.0,0.0,83,0.00,,CLR,0.00,VWS V14.00,2013-01-11 07:27:00,
2013-01-11 02:32:00,35.1,30.5,30.32,WSW,254,0.0,0.0,83,0.00,,CLR,0.00,VWS V14.00,2013-01-11 07:32:00,
2013-01-11 02:37:00,35.1,30.5,30.32,WSW,254,0.0,0.0,83,0.00,,CLR,0.00,VWS V14.00,2013-01-11 07:37:00,
2013-01-11 02:42:00,35.3,30.7,30.32,WSW,254,0.0,0.0,83,0.00,,CLR,0.00,VWS V14.00,2013-01-11 07:42:00,
2013-01-11 02:47:00,35.3,30.7,30.32,WSW,254,2.5,2.7,83,0.00,,CLR,0.00,VWS V14.00,2013-01-11 07:47:00,
2013-01-11 02:52:00,35.3,30.7,30.32,WSW,254,0.0,0.0,83,0.00,,CLR,0.00,VWS V14.00,2013-01-11 07:52:00,
2013-01-11 02:57:00,35.3,30.7,30.32,WSW,254,0.0,0.0,83,0.00,,CLR,0.00,VWS V14.00,2013-01-11 07:57:00,
2013-01-11 03:03:00,35.3,31.0,30.32,WSW,254,0.0,0.0,84,0.00,,FEW022,0.00,VWS V14.00,2013-01-11 08:03:00,
2013-01-11 03:08:00,35.3,31.0,30.32,WSW,254,0.0,0.0,84,0.00,,FEW022,0.00,VWS V14.00,2013-01-11 08:08:00,
2013-01-11 03:13:00,35.3,31.0,30.32,WSW,254,0.0,0.0,84,0.00,,FEW022,0.00,VWS V14.00,2013-01-11 08:13:00,
2013-01-11 03:18:00,35.1,30.8,30.32,WSW,254,0.0,0.0,84,0.00,,FEW022,0.00,VWS V14.00,2013-01-11 08:18:00,
2013-01-11 03:23:00,35.5,31.1,30.32,WSW,254,2.5,3.2,84,0.00,,FEW022,0.00,VWS V14.00,2013-01-11 08:23:00,
2013-01-11 03:28:00,35.5,31.1,30.32,WSW,254,0.0,0.0,84,0.00,,FEW022,0.00,VWS V14.00,2013-01-11 08:28:00,
2013-01-11 03:33:00,35.5,31.1,30.29,WSW,254,0.0,0.0,84,0.00,,BKN024,0.00,VWS V14.00,2013-01-11 08:33:00,
2013-01-11 03:38:00,35.5,31.1,30.29,WSW,254,3.4,3.8,84,0.00,,BKN024,0.00,VWS V14.00,2013-01-11 08:38:00,
2013-01-11 03:43:00,35.5,30.8,30.29,WSW,254,0.0,0.0,83,0.00,,BKN024,0.00,VWS V14.00,2013-01-11 08:43:00,
2013-01-11 03:49:00,35.5,30.8,30.29,WSW,254,0.0,0.0,83,0.00,,BKN024,0.00,VWS V14.00,2013-01-11 08:49:00,
2013-01-11 03:54:00,35.7,31.0,30.29,WSW,254,0.0,0.0,83,0.00,,BKN024,0.00,VWS V14.00,2013-01-11 08:54:00,
2013-01-11 03:59:00,35.7,30.7,30.29,WSW,254,0.0,0.0,82,0.00,,BKN024,0.00,VWS V14.00,2013-01-11 08:59:00,
2013-01-11 04:04:00,35.7,30.7,30.29,WSW,254,0.0,0.0,82,0.00,,BKN024,0.00,VWS V14.00,2013-01-11 09:04:00,
2013-01-11 04:09:00,35.8,30.9,30.29,WSW,254,0.0,0.0,82,0.00,,BKN024,0.00,VWS V14.00,2013-01-11 09:09:00,
2013-01-11 04:14:00,35.7,31.0,30.29,WNW,283,3.0,4.8,83,0.00,,BKN024,0.00,VWS V14.00,2013-01-11 09:14:00,
2013-01-11 04:19:00,35.7,31.3,30.29,WNW,283,0.0,0.0,84,0.00,,BKN024,0.00,VWS V14.00,2013-01-11 09:19:00,
2013-01-11 04:24:00,35.7,31.6,30.29,WNW,283,0.0,0.0,85,0.00,,BKN024,0.00,VWS V14.00,2013-01-11 09:24:00,
2013-01-11 04:29:00,35.7,31.6,30.29,WNW,283,2.5,2.7,85,0.00,,BKN024,0.00,VWS V14.00,2013-01-11 09:29:00,
2013-01-11 04:34:00,35.7,31.6,30.29,WNW,283,0.0,0.0,85,0.00,,BKN024,0.00,VWS V14.00,2013-01-11 09:34:00,
2013-01-11 04:40:00,35.7,31.6,30.29,WNW,283,0.0,0.0,85,0.00,,BKN024,0.00,VWS V14.00,2013-01-11 09:40:00,
2013-01-11 04:45:00,35.7,31.3,30.29,WNW,283,0.0,0.0,84,0.00,,BKN024,0.00,VWS V14.00,2013-01-11 09:45:00,
2013-01-11 04:50:00,35.8,31.5,30.29,WNW,283,0.0,0.0,84,0.00,,BKN024,0.00,VWS V14.00,2013-01-11 09:50:00,
2013-01-11 04:55:00,35.8,31.5,30.29,WNW,283,2.5,3.2,84,0.00,,BKN024,0.00,VWS V14.00,2013-01-11 09:55:00,
2013-01-11 05:00:00,35.8,31.5,30.29,WNW,283,2.5,3.2,84,0.00,,BKN024,0.00,VWS V14.00,2013-01-11 10:00:00,
2013-01-11 05:05:00,35.8,31.5,30.27,WNW,283,0.0,0.0,84,0.00,,OVC026,0.00,VWS V14.00,2013-01-11 10:05:00,
2013-01-11 05:10:00,35.8,31.5,30.27,WNW,283,0.0,2.7,84,0.00,,OVC026,0.00,VWS V14.00,2013-01-11 10:10:00,
2013-01-11 05:15:00,36.0,31.4,30.27,WNW,283,3.0,3.2,83,0.00,,OVC026,0.00,VWS V14.00,2013-01-11 10:15:00,
2013-01-11 05:20:00,36.2,31.6,30.27,WNW,283,0.0,0.0,83,0.00,,OVC026,0.00,VWS V14.00,2013-01-11 10:20:00,
2013-01-11 05:25:00,36.4,31.5,30.27,WNW,283,3.0,3.2,82,0.00,,OVC026,0.00,VWS V14.00,2013-01-11 10:25:00,
2013-01-11 05:30:00,36.2,31.6,30.27,WNW,283,0.0,0.0,83,0.00,,OVC026,0.00,VWS V14.00,2013-01-11 10:30:00,
2013-01-11 05:36:00,36.2,31.9,30.27,SSW,205,0.0,3.8,84,0.00,,OVC026,0.00,VWS V14.00,2013-01-11 10:36:00,
2013-01-11 05:41:00,36.2,31.9,30.27,South,176,3.0,3.2,84,0.00,,OVC026,0.00,VWS V14.00,2013-01-11 10:41:00,
2013-01-11 05:46:00,36.2,31.6,30.27,East,97,0.0,0.0,83,0.00,,OVC026,0.00,VWS V14.00,2013-01-11 10:46:00,
2013-01-11 05:51:00,36.2,31.6,30.27,East,97,0.0,0.0,83,0.00,,OVC026,0.00,VWS V14.00,2013-01-11 10:51:00,
2013-01-11 05:56:00,36.2,31.9,30.27,East,97,0.0,0.0,84,0.00,,OVC026,0.00,VWS V14.00,2013-01-11 10:56:00,
2013-01-11 06:01:00,36.2,31.9,30.27,NW,314,0.0,0.0,84,0.00,,BKN042,0.00,VWS V14.00,2013-01-11 11:01:00,
2013-01-11 06:06:00,36.2,31.9,30.27,NW,313,0.0,0.0,84,0.00,,BKN042,0.00,VWS V14.00,2013-01-11 11:06:00,
2013-01-11 06:11:00,36.4,32.0,30.27,NW,313,0.0,0.0,84,0.00,,BKN042,0.00,VWS V14.00,2013-01-11 11:11:00,
2013-01-11 06:16:00,36.6,31.9,30.27,ESE,118,2.5,3.2,83,0.00,,SCT042,0.00,VWS V14.00,2013-01-11 11:16:00,
2013-01-11 06:21:00,36.8,32.1,30.27,ESE,118,0.0,0.0,83,0.00,,SCT042,0.00,VWS V14.00,2013-01-11 11:21:00,
2013-01-11 06:26:00,36.8,31.8,30.27,ESE,119,0.0,0.0,82,0.00,,SCT042,0.00,VWS V14.00,2013-01-11 11:26:00,
2013-01-11 06:31:00,37.0,31.7,30.27,ESE,119,0.0,0.0,81,0.00,,SCT042,0.00,VWS V14.00,2013-01-11 11:31:00,
2013-01-11 06:36:00,37.3,32.0,30.27,ESE,119,0.0,0.0,81,0.00,,SCT042,0.00,VWS V14.00,2013-01-11 11:36:00,
2013-01-11 06:42:00,37.5,31.9,30.27,ESE,119,0.0,0.0,80,0.00,,SCT042,0.00,VWS V14.00,2013-01-11 11:42:00,
2013-01-11 06:47:00,37.3,31.7,30.27,ESE,119,0.0,0.0,80,0.00,,SCT042,0.00,VWS V14.00,2013-01-11 11:47:00,
2013-01-11 06:52:00,37.5,31.6,30.27,SE,132,0.0,2.7,79,0.00,,SCT042,0.00,VWS V14.00,2013-01-11 11:52:00,
2013-01-11 06:57:00,38.1,31.8,30.27,SE,132,2.5,2.7,78,0.00,,SCT042,0.00,VWS V14.00,2013-01-11 11:57:00,
2013-01-11 07:02:00,37.5,31.3,30.27,SE,127,0.0,0.0,78,0.00,,-RA,0.00,VWS V14.00,2013-01-11 12:02:00,
2013-01-11 07:07:00,37.3,31.4,30.27,SE,127,2.5,3.2,79,0.00,,-RA,0.00,VWS V14.00,2013-01-11 12:07:00,
2013-01-11 07:12:00,37.5,31.3,30.27,ENE,69,0.0,2.7,78,0.00,,-RA,0.00,VWS V14.00,2013-01-11 12:12:00,
2013-01-11 07:17:00,38.3,32.0,30.27,NNW,332,3.0,3.2,78,0.00,,-RA,0.00,VWS V14.00,2013-01-11 12:17:00,
2013-01-11 07:22:00,38.3,32.0,30.27,NNW,332,0.0,0.0,78,0.00,,-RA,0.00,VWS V14.00,2013-01-11 12:22:00,
2013-01-11 07:27:00,38.1,31.8,30.27,North,353,0.0,0.0,78,0.00,,-RA,0.00,VWS V14.00,2013-01-11 12:27:00,
2013-01-11 07:32:00,38.6,32.4,30.27,North,353,2.5,2.7,78,0.00,,-RA,0.00,VWS V14.00,2013-01-11 12:32:00,
2013-01-11 07:37:00,38.3,32.3,30.27,North,353,3.0,3.2,79,0.00,,-RA,0.00,VWS V14.00,2013-01-11 12:37:00,
2013-01-11 07:42:00,37.9,32.3,30.27,NE,49,0.0,0.0,80,0.01,,-RA,0.01,VWS V14.00,2013-01-11 12:42:00,
2013-01-11 07:47:00,38.1,32.8,30.27,NE,49,3.4,3.8,81,0.01,,-RA,0.01,VWS V14.00,2013-01-11 12:47:00,
2013-01-11 07:52:00,38.3,33.6,30.27,ENE,63,3.4,4.3,83,0.01,,-RA,0.01,VWS V14.00,2013-01-11 12:52:00,
2013-01-11 07:57:00,37.9,33.8,30.27,ENE,66,3.0,4.3,85,0.02,,-RA,0.02,VWS V14.00,2013-01-11 12:57:00,
2013-01-11 08:02:00,37.7,33.6,30.27,ENE,77,3.0,3.8,85,0.02,,OVC080,0.02,VWS V14.00,2013-01-11 13:02:00,
2013-01-11 08:07:00,37.7,33.6,30.27,ENE,77,2.5,3.2,85,0.02,,OVC080,0.02,VWS V14.00,2013-01-11 13:07:00,
2013-01-11 08:13:00,37.7,33.9,30.27,ENE,77,0.0,0.0,86,0.02,,OVC080,0.02,VWS V14.00,2013-01-11 13:13:00,
2013-01-11 08:18:00,37.7,34.2,30.27,ENE,77,0.0,0.0,87,0.02,,OVC080,0.02,VWS V14.00,2013-01-11 13:18:00,
2013-01-11 08:23:00,37.7,34.8,30.27,ENE,77,3.4,3.8,89,0.03,,OVC080,0.03,VWS V14.00,2013-01-11 13:23:00,
2013-01-11 08:28:00,37.5,34.9,30.27,ENE,77,0.0,0.0,90,0.04,,OVC080,0.04,VWS V14.00,2013-01-11 13:28:00,
2013-01-11 08:33:00,37.5,34.9,30.27,ENE,77,0.0,0.0,90,0.04,,OVC080,0.04,VWS V14.00,2013-01-11 13:33:00,
2013-01-11 08:38:00,37.5,35.1,30.27,ENE,77,2.5,2.7,91,0.04,,OVC080,0.04,VWS V14.00,2013-01-11 13:38:00,
2013-01-11 08:43:00,37.5,35.4,30.27,ENE,77,2.5,2.7,92,0.04,,OVC080,0.05,VWS V14.00,2013-01-11 13:43:00,
2013-01-11 08:48:00,37.5,35.7,30.27,ENE,77,0.0,0.0,93,0.05,,OVC080,0.06,VWS V14.00,2013-01-11 13:48:00,
2013-01-11 08:53:00,37.7,35.9,30.27,ENE,77,0.0,0.0,93,0.05,,OVC080,0.06,VWS V14.00,2013-01-11 13:53:00,
2013-01-11 08:58:00,37.7,36.1,30.27,ENE,77,0.0,0.0,94,0.07,,OVC080,0.09,VWS V14.00,2013-01-11 13:58:00,
2013-01-11 09:03:00,37.7,36.4,30.27,ENE,77,0.0,0.0,95,0.08,,OVC010,0.10,VWS V14.00,2013-01-11 14:03:00,
2013-01-11 09:08:00,37.5,36.2,30.27,SE,143,3.4,3.8,95,0.10,,OVC010,0.12,VWS V14.00,2013-01-11 14:08:00,
2013-01-11 09:13:00,37.3,36.0,30.27,ENE,73,3.0,3.2,95,0.11,,OVC010,0.13,VWS V14.00,2013-01-11 14:13:00,
2013-01-11 09:18:00,37.3,36.3,30.24,East,85,3.0,3.2,96,0.11,,OVC010,0.13,VWS V14.00,2013-01-11 14:18:00,
2013-01-11 09:23:00,37.3,36.3,30.24,East,82,0.0,0.0,96,0.10,,OVC010,0.13,VWS V14.00,2013-01-11 14:23:00,
2013-01-11 09:28:00,37.5,36.5,30.24,East,82,0.0,0.0,96,0.11,,OVC010,0.14,VWS V14.00,2013-01-11 14:28:00,
2013-01-11 09:33:00,37.5,36.8,30.24,East,82,0.0,0.0,97,0.10,,OVC008,0.14,VWS V14.00,2013-01-11 14:33:00,
2013-01-11 09:38:00,37.5,36.8,30.24,East,82,0.0,0.0,97,0.10,,OVC008,0.14,VWS V14.00,2013-01-11 14:38:00,
2013-01-11 09:44:00,37.7,36.9,30.24,East,82,0.0,0.0,97,0.09,,OVC008,0.14,VWS V14.00,2013-01-11 14:44:00,
2013-01-11 09:49:00,37.7,37.2,30.24,NNE,32,0.0,0.0,98,0.08,,OVC008,0.14,VWS V14.00,2013-01-11 14:49:00,
2013-01-11 09:54:00,37.9,37.4,30.24,ENE,63,3.0,3.2,98,0.08,,OVC008,0.14,VWS V14.00,2013-01-11 14:54:00,
2013-01-11 09:59:00,37.7,37.2,30.24,ENE,63,0.0,0.0,98,0.05,,OVC008,0.14,VWS V14.00,2013-01-11 14:59:00,
2013-01-11 10:04:00,37.9,37.4,30.24,ENE,63,0.0,0.0,98,0.05,,OVC013,0.15,VWS V14.00,2013-01-11 15:04:00,
2013-01-11 10:09:00,37.9,37.4,30.24,ENE,63,0.0,0.0,98,0.04,,OVC013,0.15,VWS V14.00,2013-01-11 15:09:00,
2013-01-11 10:14:00,38.1,37.6,30.24,ENE,63,0.0,0.0,98,0.02,,OVC013,0.15,VWS V14.00,2013-01-11 15:14:00,
2013-01-11 10:19:00,38.3,37.8,30.24,ENE,63,0.0,0.0,98,0.02,,OVC013,0.15,VWS V14.00,2013-01-11 15:19:00,
2013-01-11 10:24:00,38.3,37.8,30.24,ENE,63,0.0,0.0,98,0.02,,OVC013,0.15,VWS V14.00,2013-01-11 15:24:00,
2013-01-11 10:29:00,38.3,37.8,30.24,ENE,63,0.0,0.0,98,0.01,,OVC013,0.15,VWS V14.00,2013-01-11 15:29:00,
2013-01-11 10:34:00,38.3,37.8,30.21,ENE,63,0.0,0.0,98,0.01,,OVC013,0.15,VWS V14.00,2013-01-11 15:34:00,
2013-01-11 10:39:00,38.5,37.9,30.21,SSW,200,3.0,3.2,98,0.01,,OVC013,0.15,VWS V14.00,2013-01-11 15:39:00,
2013-01-11 10:45:00,38.3,37.8,30.21,East,99,2.5,3.2,98,0.01,,OVC013,0.15,VWS V14.00,2013-01-11 15:45:00,
2013-01-11 10:50:00,38.5,37.9,30.21,East,99,3.0,3.2,98,0.01,,OVC013,0.15,VWS V14.00,2013-01-11 15:50:00,
2013-01-11 10:55:00,38.3,37.8,30.21,East,83,0.0,0.0,98,0.01,,OVC013,0.15,VWS V14.00,2013-01-11 15:55:00,
2013-01-11 11:00:00,38.5,37.9,30.21,ESE,105,3.0,3.2,98,0.00,,OVC013,0.15,VWS V14.00,2013-01-11 16:00:00,
2013-01-11 11:05:00,38.3,37.8,30.21,West,279,3.9,4.3,98,0.00,,OVC012,0.15,VWS V14.00,2013-01-11 16:05:00,
2013-01-11 11:10:00,38.5,37.9,30.21,NW,312,3.4,3.8,98,0.00,,OVC012,0.15,VWS V14.00,2013-01-11 16:10:00,
2013-01-11 11:15:00,38.3,37.8,30.21,NW,312,0.0,0.0,98,0.00,,OVC012,0.15,VWS V14.00,2013-01-11 16:15:00,
2013-01-11 11:20:00,38.5,37.9,30.21,NW,312,3.0,3.2,98,0.00,,OVC012,0.15,VWS V14.00,2013-01-11 16:20:00,
2013-01-11 11:25:00,38.3,37.8,30.21,NW,312,0.0,0.0,98,0.00,,OVC012,0.15,VWS V14.00,2013-01-11 16:25:00,
2013-01-11 11:30:00,38.6,38.1,30.21,NW,312,0.0,0.0,98,0.00,,OVC012,0.15,VWS V14.00,2013-01-11 16:30:00,
2013-01-11 11:35:00,38.6,38.1,30.18,NW,312,0.0,0.0,98,0.00,,BKN015,0.15,VWS V14.00,2013-01-11 16:35:00,
2013-01-11 11:40:00,38.8,38.3,30.18,NW,312,0.0,0.0,98,0.00,,BKN015,0.15,VWS V14.00,2013-01-11 16:40:00,
2013-01-11 11:46:00,38.8,38.3,30.18,NW,312,0.0,0.0,98,0.00,,OVC110,0.15,VWS V14.00,2013-01-11 16:46:00,
2013-01-11 11:51:00,39.0,38.5,30.18,NW,326,3.4,4.3,98,0.00,,OVC110,0.15,VWS V14.00,2013-01-11 16:51:00,
2013-01-11 11:56:00,38.8,38.3,30.18,NNW,327,0.0,0.0,98,0.00,,OVC110,0.15,VWS V14.00,2013-01-11 16:56:00,
2013-01-11 12:01:00,39.0,38.5,30.18,NNW,327,0.0,0.0,98,0.00,,BKN110,0.15,VWS V14.00,2013-01-11 17:01:00,
2013-01-11 12:06:00,39.0,38.5,30.15,NNW,327,0.0,0.0,98,0.00,,BKN110,0.15,VWS V14.00,2013-01-11 17:06:00,
2013-01-11 12:11:00,39.0,38.5,30.15,NNW,327,0.0,0.0,98,0.00,,BKN110,0.15,VWS V14.00,2013-01-11 17:11:00,
2013-01-11 12:16:00,39.0,38.5,30.15,NNW,327,0.0,0.0,98,0.00,,BKN110,0.15,VWS V14.00,2013-01-11 17:16:00,
2013-01-11 12:21:00,39.0,38.5,30.15,NNW,327,0.0,0.0,98,0.00,,BKN110,0.15,VWS V14.00,2013-01-11 17:21:00,
2013-01-11 12:26:00,39.0,38.5,30.15,NNW,327,0.0,0.0,98,0.00,,BKN110,0.15,VWS V14.00,2013-01-11 17:26:00,
2013-01-11 12:31:00,39.0,38.5,30.15,NNW,327,0.0,0.0,98,0.00,,BKN110,0.15,VWS V14.00,2013-01-11 17:31:00,
2013-01-11 12:36:00,39.0,38.5,30.15,South,173,0.0,0.0,98,0.00,,BKN110,0.15,VWS V14.00,2013-01-11 17:36:00,
2013-01-11 12:41:00,39.2,38.7,30.15,South,172,0.0,0.0,98,0.00,,BKN110,0.15,VWS V14.00,2013-01-11 17:41:00,
2013-01-11 12:47:00,39.0,38.5,30.15,South,172,0.0,0.0,98,0.00,,BKN110,0.15,VWS V14.00,2013-01-11 17:47:00,
2013-01-11 12:52:00,39.4,38.9,30.12,South,172,0.0,0.0,98,0.00,,BKN110,0.15,VWS V14.00,2013-01-11 17:52:00,
2013-01-11 12:57:00,39.4,38.9,30.12,South,172,0.0,0.0,98,0.00,,BKN110,0.15,VWS V14.00,2013-01-11 17:57:00,
2013-01-11 13:02:00,39.6,39.0,30.12,South,172,0.0,0.0,98,0.00,,BKN065,0.15,VWS V14.00,2013-01-11 18:02:00,
2013-01-11 13:07:00,39.6,39.0,30.12,South,173,0.0,0.0,98,0.00,,BKN065,0.15,VWS V14.00,2013-01-11 18:07:00,
2013-01-11 13:12:00,39.6,39.0,30.12,South,172,0.0,0.0,98,0.00,,BKN065,0.15,VWS V14.00,2013-01-11 18:12:00,
2013-01-11 13:17:00,39.6,39.0,30.12,South,172,0.0,0.0,98,0.00,,BKN065,0.15,VWS V14.00,2013-01-11 18:17:00,
2013-01-11 13:22:00,39.6,39.0,30.12,South,172,0.0,0.0,98,0.00,,BKN065,0.15,VWS V14.00,2013-01-11 18:22:00,
2013-01-11 13:27:00,39.6,39.0,30.12,South,173,0.0,0.0,98,0.00,,BKN065,0.15,VWS V14.00,2013-01-11 18:27:00,
2013-01-11 13:32:00,39.6,39.0,30.12,South,173,2.5,2.7,98,0.00,,BKN065,0.15,VWS V14.00,2013-01-11 18:32:00,
2013-01-11 13:37:00,39.8,39.2,30.12,South,172,0.0,0.0,98,0.01,,BKN065,0.16,VWS V14.00,2013-01-11 18:37:00,
2013-01-11 13:42:00,39.6,39.0,30.12,South,172,0.0,0.0,98,0.01,,BKN065,0.16,VWS V14.00,2013-01-11 18:42:00,
2013-01-11 13:47:00,39.8,39.2,30.12,South,172,0.0,0.0,98,0.01,,BKN065,0.16,VWS V14.00,2013-01-11 18:47:00,
2013-01-11 13:53:00,39.9,39.4,30.09,South,172,0.0,0.0,98,0.01,,BKN065,0.16,VWS V14.00,2013-01-11 18:53:00,
2013-01-11 13:58:00,39.9,39.4,30.09,South,172,0.0,0.0,98,0.01,,BKN065,0.16,VWS V14.00,2013-01-11 18:58:00,
2013-01-11 14:03:00,39.9,39.4,30.09,South,172,0.0,0.0,98,0.01,,OVC043,0.16,VWS V14.00,2013-01-11 19:03:00,
2013-01-11 14:08:00,39.8,39.2,30.09,South,172,0.0,0.0,98,0.01,,OVC043,0.16,VWS V14.00,2013-01-11 19:08:00,
2013-01-11 14:13:00,39.8,39.2,30.09,South,172,0.0,0.0,98,0.01,,OVC043,0.16,VWS V14.00,2013-01-11 19:13:00,
2013-01-11 14:18:00,39.9,39.4,30.09,South,172,0.0,0.0,98,0.01,,OVC043,0.16,VWS V14.00,2013-01-11 19:18:00,
2013-01-11 14:23:00,39.9,39.4,30.09,South,172,0.0,0.0,98,0.01,,OVC043,0.16,VWS V14.00,2013-01-11 19:23:00,
2013-01-11 14:28:00,39.6,39.0,30.09,NNW,337,0.0,0.0,98,0.01,,OVC043,0.16,VWS V14.00,2013-01-11 19:28:00,
2013-01-11 14:33:00,39.8,39.2,30.09,NNW,337,0.0,0.0,98,0.01,,OVC043,0.16,VWS V14.00,2013-01-11 19:33:00,
2013-01-11 14:38:00,39.9,39.4,30.09,NNW,337,0.0,0.0,98,0.00,,OVC043,0.16,VWS V14.00,2013-01-11 19:38:00,
2013-01-11 14:43:00,40.1,39.6,30.09,NW,308,0.0,0.0,98,0.00,,OVC043,0.16,VWS V14.00,2013-01-11 19:43:00,
2013-01-11 14:48:00,40.1,39.6,30.09,NW,308,0.0,0.0,98,0.00,,OVC043,0.16,VWS V14.00,2013-01-11 19:48:00,
2013-01-11 14:53:00,40.3,39.8,30.09,NW,309,0.0,0.0,98,0.00,,OVC043,0.16,VWS V14.00,2013-01-11 19:53:00,
2013-01-11 14:59:00,40.3,39.8,30.09,NW,309,0.0,0.0,98,0.00,,OVC043,0.16,VWS V14.00,2013-01-11 19:59:00,
2013-01-11 15:04:00,40.5,40.0,30.09,NW,309,0.0,0.0,98,0.00,,OVC030,0.16,VWS V14.00,2013-01-11 20:04:00,
2013-01-11 15:09:00,40.5,40.0,30.09,NW,308,0.0,0.0,98,0.00,,OVC030,0.16,VWS V14.00,2013-01-11 20:09:00,
2013-01-11 15:14:00,40.5,40.0,30.09,NW,308,0.0,0.0,98,0.00,,OVC030,0.16,VWS V14.00,2013-01-11 20:14:00,
2013-01-11 15:19:00,40.7,40.2,30.09,NW,309,0.0,0.0,98,0.00,,OVC035,0.16,VWS V14.00,2013-01-11 20:19:00,
2013-01-11 15:24:00,40.7,40.2,30.09,NW,308,0.0,0.0,98,0.00,,OVC035,0.16,VWS V14.00,2013-01-11 20:24:00,
2013-01-11 15:29:00,40.7,40.2,30.09,NW,308,0.0,0.0,98,0.00,,OVC035,0.16,VWS V14.00,2013-01-11 20:29:00,
2013-01-11 15:34:00,40.9,40.3,30.09,NW,308,0.0,0.0,98,0.00,,OVC036,0.16,VWS V14.00,2013-01-11 20:34:00,
2013-01-11 15:39:00,40.9,40.3,30.09,NW,309,0.0,0.0,98,0.00,,OVC036,0.16,VWS V14.00,2013-01-11 20:39:00,
2013-01-11 15:44:00,40.9,40.3,30.09,NW,309,0.0,0.0,98,0.00,,OVC036,0.16,VWS V14.00,2013-01-11 20:44:00,
2013-01-11 15:49:00,40.7,40.2,30.09,NW,308,0.0,0.0,98,0.00,,OVC036,0.16,VWS V14.00,2013-01-11 20:49:00,
2013-01-11 15:54:00,40.7,40.2,30.09,NW,309,0.0,0.0,98,0.00,,OVC036,0.16,VWS V14.00,2013-01-11 20:54:00,
2013-01-11 15:59:00,40.7,40.2,30.09,WNW,286,0.0,0.0,98,0.00,,OVC036,0.16,VWS V14.00,2013-01-11 20:59:00,
2013-01-11 16:04:00,40.7,40.2,30.09,WNW,286,0.0,0.0,98,0.00,,OVC045,0.16,VWS V14.00,2013-01-11 21:04:00,
2013-01-11 16:09:00,40.7,40.2,30.09,WNW,286,0.0,0.0,98,0.00,,OVC045,0.16,VWS V14.00,2013-01-11 21:09:00,
2013-01-11 16:14:00,40.7,40.2,30.09,WNW,286,0.0,0.0,98,0.00,,OVC045,0.16,VWS V14.00,2013-01-11 21:14:00,
2013-01-11 16:19:00,40.9,40.3,30.09,WNW,286,0.0,0.0,98,0.00,,OVC045,0.16,VWS V14.00,2013-01-11 21:19:00,
2013-01-11 16:24:00,40.9,40.3,30.09,WNW,286,0.0,0.0,98,0.00,,OVC045,0.16,VWS V14.00,2013-01-11 21:24:00,
2013-01-11 16:30:00,40.9,40.3,30.09,WNW,286,0.0,0.0,98,0.00,,OVC045,0.16,VWS V14.00,2013-01-11 21:30:00,
2013-01-11 16:35:00,40.7,40.2,30.09,WNW,286,0.0,0.0,98,0.00,,OVC045,0.16,VWS V14.00,2013-01-11 21:35:00,
2013-01-11 16:40:00,40.7,40.2,30.09,WNW,286,0.0,0.0,98,0.00,,OVC045,0.16,VWS V14.00,2013-01-11 21:40:00,
2013-01-11 16:45:00,40.7,40.2,30.09,WNW,286,0.0,0.0,98,0.00,,OVC045,0.16,VWS V14.00,2013-01-11 21:45:00,
2013-01-11 16:50:00,40.7,40.2,30.09,WNW,286,0.0,0.0,98,0.00,,OVC045,0.16,VWS V14.00,2013-01-11 21:50:00,
2013-01-11 16:55:00,40.7,40.2,30.09,WNW,286,0.0,0.0,98,0.00,,OVC045,0.16,VWS V14.00,2013-01-11 21:55:00,
2013-01-11 17:00:00,40.5,40.0,30.09,WNW,287,0.0,0.0,98,0.00,,OVC045,0.16,VWS V14.00,2013-01-11 22:00:00,
2013-01-11 17:05:00,40.5,40.0,30.09,WNW,286,0.0,0.0,98,0.00,,OVC050,0.16,VWS V14.00,2013-01-11 22:05:00,
2013-01-11 17:10:00,40.5,40.0,30.09,WNW,286,0.0,0.0,98,0.00,,OVC050,0.16,VWS V14.00,2013-01-11 22:10:00,
2013-01-11 17:15:00,40.5,40.0,30.09,WNW,286,0.0,0.0,98,0.00,,OVC043,0.16,VWS V14.00,2013-01-11 22:15:00,
2013-01-11 17:20:00,40.5,40.0,30.09,WNW,286,0.0,0.0,98,0.00,,OVC043,0.16,VWS V14.00,2013-01-11 22:20:00,
2013-01-11 17:25:00,40.7,40.2,30.09,WNW,286,0.0,0.0,98,0.00,,OVC043,0.16,VWS V14.00,2013-01-11 22:25:00,
2013-01-11 17:31:00,40.7,40.2,30.09,WNW,286,0.0,0.0,98,0.00,,OVC043,0.16,VWS V14.00,2013-01-11 22:31:00,
2013-01-11 17:36:00,40.5,40.0,30.09,WNW,286,0.0,0.0,98,0.00,,OVC043,0.16,VWS V14.00,2013-01-11 22:36:00,
2013-01-11 17:41:00,40.5,40.0,30.09,WNW,286,0.0,0.0,98,0.00,,OVC043,0.16,VWS V14.00,2013-01-11 22:41:00,
2013-01-11 17:46:00,40.5,40.0,30.09,WNW,286,0.0,0.0,98,0.00,,OVC043,0.16,VWS V14.00,2013-01-11 22:46:00,
2013-01-11 17:51:00,40.5,40.0,30.09,WNW,286,0.0,0.0,98,0.00,,OVC043,0.16,VWS V14.00,2013-01-11 22:51:00,
2013-01-11 17:56:00,40.5,40.0,30.09,WNW,286,0.0,0.0,98,0.00,,OVC043,0.16,VWS V14.00,2013-01-11 22:56:00,
2013-01-11 18:01:00,40.5,40.0,30.09,WNW,286,0.0,0.0,98,0.00,,OVC025,0.16,VWS V14.00,2013-01-11 23:01:00,
2013-01-11 18:06:00,40.3,39.8,30.09,WNW,286,0.0,0.0,98,0.00,,OVC025,0.16,VWS V14.00,2013-01-11 23:06:00,
2013-01-11 18:11:00,40.5,40.0,30.09,WNW,286,0.0,0.0,98,0.00,,OVC025,0.16,VWS V14.00,2013-01-11 23:11:00,
2013-01-11 18:16:00,40.5,40.0,30.09,WNW,286,0.0,0.0,98,0.00,,OVC025,0.16,VWS V14.00,2013-01-11 23:16:00,
2013-01-11 18:21:00,40.5,40.0,30.09,WNW,286,0.0,0.0,98,0.00,,OVC025,0.16,VWS V14.00,2013-01-11 23:21:00,
2013-01-11 18:26:00,40.5,40.0,30.09,WNW,286,0.0,0.0,98,0.00,,OVC025,0.16,VWS V14.00,2013-01-11 23:26:00,
2013-01-11 18:31:00,40.3,39.8,30.09,NW,316,0.0,0.0,98,0.00,,BKN037,0.16,VWS V14.00,2013-01-11 23:31:00,
2013-01-11 18:36:00,40.1,39.6,30.09,NW,316,0.0,0.0,98,0.00,,BKN037,0.16,VWS V14.00,2013-01-11 23:36:00,
2013-01-11 18:42:00,40.1,39.6,30.09,NW,316,0.0,0.0,98,0.00,,BKN037,0.16,VWS V14.00,2013-01-11 23:42:00,
2013-01-11 18:47:00,39.9,39.4,30.09,NW,316,0.0,0.0,98,0.00,,BKN037,0.16,VWS V14.00,2013-01-11 23:47:00,
2013-01-11 18:52:00,40.1,39.6,30.09,NW,316,0.0,0.0,98,0.00,,BKN037,0.16,VWS V14.00,2013-01-11 23:52:00,
2013-01-11 18:57:00,40.1,39.6,30.09,NW,316,0.0,0.0,98,0.00,,BKN037,0.16,VWS V14.00,2013-01-11 23:57:00,
2013-01-11 19:02:00,39.9,39.4,30.09,NW,316,0.0,0.0,98,0.00,,BKN033,0.16,VWS V14.00,2013-01-12 00:02:00,
2013-01-11 19:07:00,39.9,39.4,30.09,NW,316,0.0,0.0,98,0.00,,BKN033,0.16,VWS V14.00,2013-01-12 00:07:00,
2013-01-11 19:12:00,39.9,39.4,30.09,NW,316,0.0,0.0,98,0.00,,BKN033,0.16,VWS V14.00,2013-01-12 00:12:00,
2013-01-11 19:17:00,39.9,39.4,30.09,NW,316,0.0,0.0,98,0.00,,BKN033,0.16,VWS V14.00,2013-01-12 00:17:00,
2013-01-11 19:22:00,39.9,39.4,30.09,NW,316,0.0,0.0,98,0.00,,BKN033,0.16,VWS V14.00,2013-01-12 00:22:00,
2013-01-11 19:27:00,39.9,39.4,30.09,NW,316,0.0,0.0,98,0.00,,BKN033,0.16,VWS V14.00,2013-01-12 00:27:00,
2013-01-11 19:32:00,39.9,39.4,30.09,NW,316,0.0,0.0,98,0.00,,OVC048,0.16,VWS V14.00,2013-01-12 00:32:00,
2013-01-11 19:37:00,39.9,39.4,30.09,NW,316,0.0,0.0,98,0.00,,OVC048,0.16,VWS V14.00,2013-01-12 00:37:00,
2013-01-11 19:42:00,39.9,39.4,30.09,NW,316,0.0,0.0,98,0.00,,OVC048,0.16,VWS V14.00,2013-01-12 00:42:00,
2013-01-11 19:47:00,39.9,39.4,30.09,NW,316,0.0,0.0,98,0.00,,OVC048,0.16,VWS V14.00,2013-01-12 00:47:00,
2013-01-11 19:53:00,40.1,39.6,30.09,NW,316,0.0,0.0,98,0.00,,OVC048,0.16,VWS V14.00,2013-01-12 00:53:00,
2013-01-11 19:58:00,39.9,39.4,30.09,NW,316,0.0,0.0,98,0.00,,OVC048,0.16,VWS V14.00,2013-01-12 00:58:00,
2013-01-11 20:03:00,39.9,39.4,30.09,NW,316,0.0,0.0,98,0.00,,BKN044,0.16,VWS V14.00,2013-01-12 01:03:00,
2013-01-11 20:08:00,39.8,39.2,30.09,NW,316,0.0,0.0,98,0.00,,BKN044,0.16,VWS V14.00,2013-01-12 01:08:00,
2013-01-11 20:13:00,39.8,39.2,30.09,NW,316,0.0,0.0,98,0.00,,BKN044,0.16,VWS V14.00,2013-01-12 01:13:00,
2013-01-11 20:18:00,39.6,39.0,30.09,NW,316,0.0,0.0,98,0.00,,BKN044,0.16,VWS V14.00,2013-01-12 01:18:00,
2013-01-11 20:23:00,39.6,39.0,30.09,NW,316,0.0,0.0,98,0.00,,BKN044,0.16,VWS V14.00,2013-01-12 01:23:00,
2013-01-11 20:28:00,39.4,38.9,30.09,NW,316,0.0,0.0,98,0.00,,BKN044,0.16,VWS V14.00,2013-01-12 01:28:00,
2013-01-11 20:33:00,39.4,38.9,30.09,NW,316,0.0,0.0,98,0.00,,BKN044,0.16,VWS V14.00,2013-01-12 01:33:00,
2013-01-11 20:38:00,39.4,38.9,30.09,NW,316,0.0,0.0,98,0.00,,BKN044,0.16,VWS V14.00,2013-01-12 01:38:00,
2013-01-11 20:43:00,39.4,38.9,30.09,NW,316,0.0,0.0,98,0.00,,BKN044,0.16,VWS V14.00,2013-01-12 01:43:00,
2013-01-11 20:48:00,39.4,38.9,30.09,NW,316,0.0,0.0,98,0.00,,BKN044,0.16,VWS V14.00,2013-01-12 01:48:00,
2013-01-11 20:53:00,39.4,38.9,30.09,NW,316,0.0,0.0,98,0.00,,BKN044,0.16,VWS V14.00,2013-01-12 01:53:00,
2013-01-11 20:58:00,39.2,38.7,30.09,NW,316,0.0,0.0,98,0.00,,BKN044,0.16,VWS V14.00,2013-01-12 01:58:00,
2013-01-11 21:03:00,39.0,38.5,30.09,NW,316,0.0,0.0,98,0.00,,CLR,0.16,VWS V14.00,2013-01-12 02:03:00,
2013-01-11 21:08:00,39.2,38.7,30.09,NW,316,0.0,0.0,98,0.00,,CLR,0.16,VWS V14.00,2013-01-12 02:08:00,
2013-01-11 21:13:00,39.0,38.5,30.09,NW,316,0.0,0.0,98,0.00,,CLR,0.16,VWS V14.00,2013-01-12 02:13:00,
2013-01-11 21:18:00,39.0,38.5,30.09,NW,316,0.0,0.0,98,0.00,,CLR,0.16,VWS V14.00,2013-01-12 02:18:00,
2013-01-11 21:23:00,39.0,38.5,30.09,NW,316,0.0,0.0,98,0.00,,CLR,0.16,VWS V14.00,2013-01-12 02:23:00,
2013-01-11 21:28:00,39.0,38.5,30.09,NW,316,0.0,0.0,98,0.00,,CLR,0.16,VWS V14.00,2013-01-12 02:28:00,
2013-01-11 21:34:00,39.0,38.5,30.09,NW,316,0.0,0.0,98,0.00,,CLR,0.16,VWS V14.00,2013-01-12 02:34:00,
2013-01-11 21:39:00,38.8,38.3,30.09,NW,316,0.0,0.0,98,0.00,,CLR,0.16,VWS V14.00,2013-01-12 02:39:00,
2013-01-11 21:44:00,38.8,38.3,30.09,NW,316,0.0,0.0,98,0.00,,CLR,0.16,VWS V14.00,2013-01-12 02:44:00,
2013-01-11 21:49:00,38.8,38.3,30.09,NW,316,0.0,0.0,98,0.00,,CLR,0.16,VWS V14.00,2013-01-12 02:49:00,
2013-01-11 21:54:00,38.8,38.3,30.09,NW,316,0.0,0.0,98,0.00,,CLR,0.16,VWS V14.00,2013-01-12 02:54:00,
2013-01-11 21:59:00,38.8,38.3,30.09,NW,316,0.0,0.0,98,0.00,,CLR,0.16,VWS V14.00,2013-01-12 02:59:00,
2013-01-11 22:04:00,38.8,38.3,30.09,NW,316,0.0,0.0,98,0.00,,CLR,0.16,VWS V14.00,2013-01-12 03:04:00,
2013-01-11 22:09:00,38.8,38.3,30.09,NW,316,0.0,0.0,98,0.00,,CLR,0.16,VWS V14.00,2013-01-12 03:09:00,
2013-01-11 22:14:00,38.8,38.3,30.09,NW,316,0.0,0.0,98,0.00,,CLR,0.16,VWS V14.00,2013-01-12 03:14:00,
2013-01-11 22:19:00,38.6,38.1,30.09,NW,316,0.0,0.0,98,0.00,,CLR,0.16,VWS V14.00,2013-01-12 03:19:00,
2013-01-11 22:24:00,38.6,38.1,30.09,NW,316,0.0,0.0,98,0.00,,CLR,0.16,VWS V14.00,2013-01-12 03:24:00,
2013-01-11 22:29:00,38.6,38.1,30.09,NW,316,0.0,0.0,98,0.00,,CLR,0.16,VWS V14.00,2013-01-12 03:29:00,
2013-01-11 22:34:00,38.5,37.9,30.09,NW,316,0.0,0.0,98,0.00,,CLR,0.16,VWS V14.00,2013-01-12 03:34:00,
2013-01-11 22:39:00,38.5,37.9,30.09,NW,316,0.0,0.0,98,0.00,,CLR,0.16,VWS V14.00,2013-01-12 03:39:00,
2013-01-11 22:44:00,38.3,37.8,30.09,NW,316,0.0,0.0,98,0.00,,CLR,0.16,VWS V14.00,2013-01-12 03:44:00,
2013-01-11 22:49:00,38.3,37.8,30.09,NW,316,0.0,0.0,98,0.00,,CLR,0.16,VWS V14.00,2013-01-12 03:49:00,
2013-01-11 22:55:00,38.3,37.8,30.09,NW,316,0.0,0.0,98,0.00,,CLR,0.16,VWS V14.00,2013-01-12 03:55:00,
2013-01-11 23:00:00,38.3,37.8,30.09,NW,316,0.0,0.0,98,0.00,,CLR,0.16,VWS V14.00,2013-01-12 04:00:00,
2013-01-11 23:05:00,38.1,37.6,30.09,NW,316,0.0,0.0,98,0.00,,CLR,0.16,VWS V14.00,2013-01-12 04:05:00,
2013-01-11 23:10:00,38.1,37.6,30.09,NW,316,0.0,0.0,98,0.00,,CLR,0.16,VWS V14.00,2013-01-12 04:10:00,
2013-01-11 23:15:00,37.9,37.4,30.09,NW,316,0.0,0.0,98,0.00,,CLR,0.16,VWS V14.00,2013-01-12 04:15:00,
2013-01-11 23:20:00,37.9,37.4,30.09,NW,316,0.0,0.0,98,0.00,,CLR,0.16,VWS V14.00,2013-01-12 04:20:00,
2013-01-11 23:25:00,37.7,37.2,30.09,NW,316,0.0,0.0,98,0.00,,CLR,0.16,VWS V14.00,2013-01-12 04:25:00,
2013-01-11 23:30:00,37.7,37.2,30.09,NW,316,0.0,0.0,98,0.00,,CLR,0.16,VWS V14.00,2013-01-12 04:30:00,
2013-01-11 23:35:00,37.7,37.2,30.09,NW,316,0.0,0.0,98,0.00,,CLR,0.16,VWS V14.00,2013-01-12 04:35:00,
2013-01-11 23:40:00,37.7,37.2,30.09,NW,316,0.0,0.0,98,0.00,,CLR,0.16,VWS V14.00,2013-01-12 04:40:00,
2013-01-11 23:45:00,37.5,37.0,30.09,NW,316,0.0,0.0,98,0.00,,CLR,0.16,VWS V14.00,2013-01-12 04:45:00,
2013-01-11 23:50:00,37.5,37.0,30.09,NW,316,0.0,0.0,98,0.00,,CLR,0.16,VWS V14.00,2013-01-12 04:50:00,
2013-01-11 23:55:00,37.3,36.8,30.09,NW,316,0.0,0.0,98,0.00,,CLR,0.16,VWS V14.00,2013-01-12 04:55:00,